Flight Track Log - Related Links

Times and Time Zones

All times are in EDT time to prevent confusion due to time zone crossing. See the THY2042 flight status page for this flight to view local times or setup timezone preferences in your user account.


Time Position Orientation Groundspeed Altitude Reporting Facility
EDT Latitude Longitude Course Direction KTS MPH feet Rate Location/Type
Mon 04:19:00 PM 40.5559 29.3759 135° Southeast  Level Estimated
Mon 04:20:00 PM 40.4855 29.4677 135° Southeast  Level Estimated
Mon 04:21:00 PM 40.4150 29.5593 135° Southeast  Level Estimated
Mon 04:22:00 PM 40.3444 29.6507 135° Southeast  Level Estimated
Mon 04:23:00 PM 40.2738 29.7420 135° Southeast  Level Estimated
Mon 04:24:00 PM 40.2030 29.8330 135° Southeast  Level Estimated
Mon 04:25:00 PM 40.1323 29.9238 136° Southeast  Level Estimated
Mon 04:26:00 PM 40.0614 30.0145 136° Southeast  Level Estimated
Mon 04:27:00 PM 39.9905 30.1049 136° Southeast  Level Estimated
Mon 04:28:00 PM 39.9195 30.1952 136° Southeast  Level Estimated
Mon 04:29:00 PM 39.8484 30.2853 136° Southeast  Level Estimated
Mon 04:30:00 PM 39.7773 30.3752 136° Southeast  Level Estimated
Mon 04:31:00 PM 39.7061 30.4649 136° Southeast  Level Estimated
Mon 04:32:00 PM 39.6348 30.5544 136° Southeast  Level Estimated
Mon 04:33:00 PM 39.5635 30.6437 136° Southeast  Level Estimated
Mon 04:34:00 PM 39.4921 30.7329 136° Southeast  Level Estimated
Mon 04:35:00 PM 39.4206 30.8219 136° Southeast  Level Estimated
Mon 04:36:00 PM 39.3490 30.9107 136° Southeast  Level Estimated
Mon 04:37:00 PM 39.2774 30.9993 136° Southeast  Level Estimated
Mon 04:38:00 PM 39.2057 31.0877 136° Southeast  Level Estimated
Mon 04:39:00 PM 39.1340 31.1760 136° Southeast  Level Estimated
Mon 04:40:00 PM 39.0622 31.2640 136° Southeast  Level Estimated
Mon 04:41:00 PM 38.9903 31.3519 136° Southeast  Level Estimated
Mon 04:42:00 PM 38.9184 31.4396 136° Southeast  Level Estimated
Mon 04:43:00 PM 38.8464 31.5272 137° Southeast  Level Estimated
Mon 04:44:00 PM 38.7743 31.6145 137° Southeast  Level Estimated
Mon 04:45:00 PM 38.7021 31.7017 137° Southeast  Level Estimated
Mon 04:46:00 PM 38.6299 31.7887 137° Southeast  Level Estimated
Mon 04:47:00 PM 38.5577 31.8755 137° Southeast  Level Estimated
Mon 04:48:00 PM 38.4853 31.9622 137° Southeast  Level Estimated
Mon 04:49:00 PM 38.4129 32.0487 137° Southeast  Level Estimated
Mon 04:50:00 PM 38.3405 32.1350 137° Southeast  Level Estimated
Mon 04:51:00 PM 38.2679 32.2211 137° Southeast  Level Estimated
Mon 04:52:00 PM 38.1954 32.3071 137° Southeast  Level Estimated
Mon 04:53:00 PM 38.1227 32.3929 137° Southeast  Level Estimated
Mon 04:54:00 PM 38.0500 32.4785 137° Southeast  Level Estimated
Mon 04:55:00 PM 37.9790 32.5619 137° Southeast  Level Estimated
Mon 04:56:00 PM 37.9790 32.5619 90° East  Level Estimated
Mon 04:57:00 PM 37.9790 32.5619 90° East  Level Estimated
Mon 04:58:00 PM 37.9790 32.5619 90° East  Level Estimated
Mon 04:59:00 PM 37.9790 32.5619 90° East  Level Estimated
Mon 05:00:00 PM 37.9790 32.5619 90° East  Level Estimated

Login

Don't have an account? Register now (free) for customized features, flight alerts, and more!